Sunday, March 01, 2015
10:58 UTC
  |  Log In   |  Register Free
Airport Search:

Owosso Community Airport
(KRNP)

Owosso Community Airport Diagram
No Airport Diagram Available

FAA data valid effective January 08, 2015 - March 05, 2015 (unless otherwise noted).

 
 
 
 
 
 
 
 
 
 
 
 
 
 

Current Aviation Weather for Owosso Community Airport (KRNP)

The most recent METAR observation for KRNP was updated at: 1017
METAR Summary (Translated METAR)
KRNP
010955Z AUTO 00000KT 5SM -SN OVC085 M10/M12 A3040 RMK AO2 T11031116
K4M4
140000Z VRB05KT 25SM SKC 16/04
(13.4 nm NW from KRNP)
KFNT
010953Z AUTO 00000KT 4SM -SN FEW050 OVC080 M09/M12 A3041 RMK AO2 SLP312 P0000 T10941122
(17.4 nm SE from KRNP)
TAF Summary (Translated TAF)
KFNT
(17.4 nm SE from KRNP)
010535Z 0106/0206 20005KT P6SM BKN060 OVC080 FM010800 15003KT 6SM -SN BKN040 OVC080 TEMPO 0109/0111 4SM -SN BKN028 OVC040 FM011300 22006KT P6SM BKN035 OVC060 FM020000 26008KT P6SM BKN035
  Airport Weather Conditions for KRNP

 Current Weather at RNP
13° F
Light Snow
North winds at 0.0 mph
RNP NOAA Radar

Pressure: 30.40 in
Humidity: 90%
Wind: Calm
Dew Point: 11.1°F
Visibility: 5.00 mi


Airport Weather Forecast for KRNP

Translated METAR and TAF for KRNP
Translated METAR for KRNP (1058 UTC 01 March 2015)
found at http://aviationweather.gov/adds/metars/
 
METAR text: KRNP 011055Z AUTO 00000KT 7SM -SN CLR M12/M13 A3041 RMK AO2 T11181127
Conditions at: KRNP (OWOSSO , MI, US) observed 1055 UTC 01 March 2015
Temperature: -11.8°C (11°F)
Dewpoint: -12.7°C (9°F) [RH = 93%]
Pressure (altimeter): 30.41 inches Hg (1029.9 mb)
Winds: calm
Visibility: 7 miles (11 km)
Ceiling: at least 12,000 feet AGL
Clouds: sky clear below 12,000 feet AGL
Weather: -SN  (light snow)
Translated TAF for KRNP

There is no translated TAF available for this airport

Find All Airport Services Find A Hotel Find A Rental Car Find A Golf Course Find A Restaurant $100 Hamburger



FBO's on the Field
FBO Company Facility Photos Services Transportation Aviation Fuel Prices: Prices include tax
Catering Weather Repair Courtesy Rental Type 100LL JetA JetA+ MOGAS 8087
 
Owosso Community Airport

This FBO has not yet been rated
FS:Avfuel
Last Updated: Jan-28
Login to update fuel prices
SS:
Contact Owosso Community AirportMore FBO Information
 
Add another FBO Facility Photos Catering Weather Repair Courtesy Rental Type 100LL JetA JetA+ MOGAS 8087
Services Transportation Aviation Fuel Prices: Prices include tax


model-print
model-print
model-print
model-print